Time;durP1;ratioP1;P1;durP2;ratioP2;P2;SDS_P1;SDS_P2;PMS_P1;PMS_P2;Temp;Humidity;BMP_temperature;BMP_pressure;BME280_temperature;BME280_humidity;BME280_pressure;Samples;Min_cycle;Max_cycle;Signal;HPM_P1;HPM_P2
2021/03/22 00:00:53;;;;;;;25.55;15.23;;;;;;;4.11;65.88;99751.97;6129770;23;20061;-54
2021/03/22 00:03:21;;;;;;;25.02;14.45;;;;;;;4.09;66.53;99740.44;6129700;23;20012;-66
2021/03/22 00:05:47;;;;;;;22.02;13.73;;;;;;;4.17;65.51;99744.94;6129702;23;20013;-67
2021/03/22 00:08:14;;;;;;;20.58;13.25;;;;;;;4.16;65.82;99746.91;6129685;23;20010;-66
2021/03/22 00:10:43;;;;;;;17.48;12.40;;;;;;;4.13;66.11;99747.66;6129912;23;20255;-66
2021/03/22 00:13:09;;;;;;;18.55;12.40;;;;;;;4.13;66.56;99756.00;6129970;23;20017;-66
2021/03/22 00:15:35;;;;;;;18.45;11.95;;;;;;;4.10;66.45;99753.16;6129997;23;20002;-65
2021/03/22 00:18:03;;;;;;;14.30;11.05;;;;;;;4.10;66.15;99750.38;6103817;23;20351;-66
2021/03/22 00:20:28;;;;;;;16.65;11.43;;;;;;;4.16;65.98;99738.56;6129411;23;20016;-66
2021/03/22 00:22:54;;;;;;;15.82;11.50;;;;;;;4.17;66.29;99739.38;6130114;23;19998;-67
2021/03/22 00:25:20;;;;;;;15.27;10.98;;;;;;;4.20;66.34;99728.28;6129686;23;20005;-66
2021/03/22 00:27:46;;;;;;;15.65;10.60;;;;;;;4.21;66.22;99723.53;6129672;23;20096;-67
2021/03/22 00:30:21;;;;;;;18.25;11.27;;;;;;;4.16;66.72;99732.19;6128938;23;20056;-66
2021/03/22 00:32:47;;;;;;;16.05;10.63;;;;;;;4.19;66.68;99725.88;6129407;23;20458;-66
2021/03/22 00:35:13;;;;;;;19.85;11.15;;;;;;;4.15;66.45;99723.06;6129547;23;20033;-64
2021/03/22 00:37:38;;;;;;;16.90;10.32;;;;;;;4.11;66.96;99724.16;6129532;23;20057;-61
2021/03/22 00:40:04;;;;;;;16.65;11.15;;;;;;;4.08;67.28;99713.78;6129502;23;20024;-63
2021/03/22 00:42:29;;;;;;;15.20;10.57;;;;;;;4.09;66.88;99707.06;6129610;23;20033;-62
2021/03/22 00:44:55;;;;;;;17.23;11.45;;;;;;;4.06;66.87;99705.03;6129676;23;20021;-58
2021/03/22 00:47:20;;;;;;;17.35;10.68;;;;;;;4.06;66.91;99694.69;6129607;23;20009;-52
2021/03/22 00:49:45;;;;;;;15.77;10.73;;;;;;;4.03;67.74;99699.03;6129147;23;20006;-49
2021/03/22 00:52:11;;;;;;;16.77;11.23;;;;;;;4.02;67.04;99689.09;6129531;23;20010;-64
2021/03/22 00:54:42;;;;;;;16.17;11.35;;;;;;;4.02;67.18;99677.97;6129610;23;20006;-65
2021/03/22 00:57:08;;;;;;;19.63;13.20;;;;;;;4.01;67.46;99665.25;6129558;23;20002;-64
2021/03/22 00:59:34;;;;;;;18.27;11.77;;;;;;;4.03;67.80;99662.09;6129634;23;20378;-65
2021/03/22 01:02:00;;;;;;;17.27;11.82;;;;;;;4.03;67.48;99656.53;6129420;23;20002;-64
2021/03/22 01:04:26;;;;;;;17.45;11.50;;;;;;;3.98;67.37;99643.75;6129518;23;19998;-64
2021/03/22 01:06:51;;;;;;;16.95;11.73;;;;;;;3.97;67.35;99642.16;6129512;23;20240;-65
2021/03/22 01:09:16;;;;;;;20.80;12.52;;;;;;;3.96;67.44;99635.00;6129549;23;20382;-65
2021/03/22 01:11:42;;;;;;;18.08;11.85;;;;;;;3.96;67.77;99626.66;6129256;23;20009;-65
2021/03/22 01:14:07;;;;;;;19.45;11.18;;;;;;;3.97;67.63;99621.88;6129590;23;20006;-65
2021/03/22 01:16:36;;;;;;;19.52;12.23;;;;;;;3.96;67.76;99629.44;6129965;23;20378;-64
2021/03/22 01:19:08;;;;;;;17.50;12.32;;;;;;;3.96;67.87;99628.63;6128723;23;20359;-65
2021/03/22 01:21:46;;;;;;;20.63;11.95;;;;;;;3.94;68.13;99628.22;6129620;23;20052;-65
2021/03/22 01:24:14;;;;;;;19.88;12.82;;;;;;;3.92;68.14;99631.38;6129593;23;20301;-65
2021/03/22 01:26:40;;;;;;;22.48;13.05;;;;;;;3.92;67.61;99627.78;6129327;23;20002;-65
2021/03/22 01:29:13;;;;;;;26.33;14.88;;;;;;;3.91;67.83;99626.19;6129338;23;20367;-64
2021/03/22 01:31:39;;;;;;;28.23;14.35;;;;;;;3.96;67.92;99623.88;6129335;23;20006;-64
2021/03/22 01:34:04;;;;;;;28.52;15.52;;;;;;;3.93;68.06;99624.63;6129215;23;20141;-65
2021/03/22 01:36:31;;;;;;;24.35;14.05;;;;;;;3.90;68.42;99622.59;6129504;23;20010;-65
2021/03/22 01:39:04;;;;;;;26.73;14.23;;;;;;;3.88;68.43;99611.06;6129349;23;20085;-65
2021/03/22 01:41:58;;;;;;;29.00;14.85;;;;;;;3.87;68.22;99625.34;6129263;23;20024;-65
2021/03/22 01:44:25;;;;;;;24.98;14.02;;;;;;;3.88;68.69;99615.81;6130646;23;20036;-66
2021/03/22 01:46:55;;;;;;;27.13;12.80;;;;;;;3.89;68.49;99615.44;6131195;23;20077;-66
2021/03/22 01:49:23;;;;;;;24.65;15.25;;;;;;;3.89;68.42;99612.66;6130839;23;20314;-66
2021/03/22 01:51:48;;;;;;;24.88;16.08;;;;;;;3.89;68.66;99611.84;6105238;23;20398;-67
2021/03/22 01:54:15;;;;;;;29.52;15.77;;;;;;;3.90;68.71;99608.69;6131028;23;20002;-66
2021/03/22 01:56:47;;;;;;;25.40;14.55;;;;;;;3.90;68.98;99597.59;6130931;23;20355;-66
2021/03/22 01:59:16;;;;;;;26.58;14.48;;;;;;;3.90;69.30;99600.38;6105244;23;20248;-60
2021/03/22 02:01:47;;;;;;;27.77;15.30;;;;;;;3.92;68.54;99605.53;6130628;23;20060;-60
2021/03/22 02:04:13;;;;;;;24.48;15.13;;;;;;;3.93;69.20;99594.03;6130990;23;20024;-63
2021/03/22 02:06:38;;;;;;;22.40;13.02;;;;;;;3.95;68.43;99594.47;6131146;23;20359;-53
2021/03/22 02:09:04;;;;;;;26.30;14.18;;;;;;;3.94;69.15;99598.44;6130916;23;20001;-57
2021/03/22 02:11:33;;;;;;;23.60;14.48;;;;;;;3.96;68.96;99596.06;6131195;23;20102;-65
2021/03/22 02:14:01;;;;;;;21.65;14.00;;;;;;;3.99;68.62;99586.97;6130798;23;20155;-67
2021/03/22 02:16:39;;;;;;;21.33;14.18;;;;;;;3.98;69.28;99593.72;6130673;23;20379;-66
2021/03/22 02:19:35;;;;;;;23.83;15.20;;;;;;;4.00;68.87;99582.22;6130693;23;20005;-49
2021/03/22 02:22:09;;;;;;;26.27;14.75;;;;;;;4.02;69.19;99580.66;6105020;23;20378;-60
2021/03/22 02:24:53;;;;;;;25.63;14.65;;;;;;;4.04;68.50;99575.50;6130785;23;20363;-53
2021/03/22 02:28:10;;;;;;;21.83;14.38;;;;;;;4.06;68.40;99565.97;6130622;23;20006;-56
2021/03/22 02:30:44;;;;;;;25.83;14.88;;;;;;;4.05;68.92;99573.53;6130361;23;20009;-52
2021/03/22 02:33:44;;;;;;;26.27;15.10;;;;;;;4.06;68.58;99565.97;6130769;23;20005;-50
2021/03/22 02:36:19;;;;;;;27.10;16.42;;;;;;;4.03;68.64;99565.56;6130798;23;20006;-52
2021/03/22 02:38:58;;;;;;;25.90;16.25;;;;;;;4.04;69.07;99569.94;6130936;23;20084;-61
2021/03/22 02:41:37;;;;;;;24.90;15.38;;;;;;;4.07;69.00;99573.94;6130373;23;20021;-63
2021/03/22 02:44:09;;;;;;;25.50;15.32;;;;;;;4.09;68.97;99570.78;6129413;23;20010;-57
2021/03/22 02:46:36;;;;;;;25.65;16.13;;;;;;;4.08;69.45;99569.19;6130169;23;20002;-63
2021/03/22 02:49:11;;;;;;;27.52;17.10;;;;;;;4.06;69.62;99571.53;6130356;23;20009;-66
2021/03/22 02:52:10;;;;;;;28.75;16.95;;;;;;;4.07;69.76;99562.81;6130302;23;20154;-66
2021/03/22 02:54:56;;;;;;;29.00;16.27;;;;;;;4.09;69.06;99566.03;6130415;23;20002;-66
2021/03/22 02:57:37;;;;;;;30.92;19.05;;;;;;;4.12;68.96;99567.28;6130881;23;20002;-66
2021/03/22 03:00:11;;;;;;;42.30;25.98;;;;;;;4.12;69.33;99558.94;6130217;23;20187;-67
2021/03/22 03:02:40;;;;;;;52.92;30.08;;;;;;;4.13;69.06;99561.31;6104598;23;20005;-66
2021/03/22 03:05:14;;;;;;;35.03;23.73;;;;;;;4.13;68.69;99563.31;6130879;23;20002;-66
2021/03/22 03:07:39;;;;;;;36.47;22.38;;;;;;;4.12;69.29;99559.72;6129874;23;20064;-67
2021/03/22 03:10:07;;;;;;;35.55;19.98;;;;;;;4.12;69.28;99559.72;6130548;23;20010;-67
2021/03/22 03:12:32;;;;;;;33.90;18.50;;;;;;;4.14;68.88;99567.69;6130365;23;20036;-67
2021/03/22 03:14:58;;;;;;;25.27;16.58;;;;;;;4.15;69.33;99558.16;6129843;23;20006;-64
2021/03/22 03:17:24;;;;;;;30.33;16.77;;;;;;;4.14;69.54;99562.94;6130241;23;20057;-65
2021/03/22 03:19:50;;;;;;;23.00;15.40;;;;;;;4.16;69.12;99551.41;6129956;23;20013;-66
2021/03/22 03:22:17;;;;;;;32.55;18.80;;;;;;;4.18;69.11;99557.41;6130170;23;20077;-65
2021/03/22 03:24:42;;;;;;;30.50;17.83;;;;;;;4.19;68.90;99564.56;6130211;23;20063;-66
2021/03/22 03:27:10;;;;;;;27.42;18.17;;;;;;;4.21;69.09;99568.56;6130063;23;20019;-65
2021/03/22 03:29:36;;;;;;;26.95;17.30;;;;;;;4.20;68.86;99571.72;6129740;23;20425;-60
2021/03/22 03:32:04;;;;;;;27.90;18.20;;;;;;;4.17;69.12;99578.06;6130042;23;20069;-63
2021/03/22 03:34:30;;;;;;;31.95;19.23;;;;;;;4.13;69.66;99571.66;6130593;23;20136;-65
2021/03/22 03:36:55;;;;;;;24.92;16.33;;;;;;;4.11;69.83;99572.03;6129848;23;20374;-64
2021/03/22 03:39:21;;;;;;;22.80;16.25;;;;;;;4.14;69.56;99570.47;6130170;23;20063;-63
2021/03/22 03:41:46;;;;;;;26.70;18.08;;;;;;;4.15;69.39;99567.31;6129946;23;20096;-61
2021/03/22 03:44:12;;;;;;;30.42;17.65;;;;;;;4.17;69.29;99566.94;6129770;23;20001;-63
2021/03/22 03:47:06;;;;;;;26.90;17.20;;;;;;;4.18;69.63;99562.97;6129833;23;20035;-64
2021/03/22 03:49:32;;;;;;;30.63;18.50;;;;;;;4.19;69.47;99564.56;6129325;23;20239;-50
2021/03/22 03:51:57;;;;;;;24.70;17.35;;;;;;;4.21;69.68;99570.53;6129523;23;20081;-65
2021/03/22 03:54:23;;;;;;;27.20;19.23;;;;;;;4.20;69.34;99574.50;6129925;23;20089;-54
2021/03/22 03:56:48;;;;;;;24.65;18.20;;;;;;;4.16;69.67;99573.66;6130071;23;20005;-55
2021/03/22 03:59:14;;;;;;;30.98;19.17;;;;;;;4.14;69.87;99574.06;6129595;23;20013;-55
2021/03/22 04:01:39;;;;;;;27.45;18.27;;;;;;;4.14;70.29;99567.69;6129519;23;20300;-57
2021/03/22 04:04:05;;;;;;;30.88;19.02;;;;;;;4.15;70.21;99566.50;6129770;23;20016;-51
2021/03/22 04:06:32;;;;;;;24.65;18.13;;;;;;;4.17;69.64;99564.16;6129722;23;20006;-63
2021/03/22 04:09:03;;;;;;;31.85;18.95;;;;;;;4.18;69.46;99566.53;6127857;23;20005;-54
2021/03/22 04:11:32;;;;;;;33.10;20.45;;;;;;;4.19;70.08;99573.72;6129401;23;20030;-63
2021/03/22 04:13:59;;;;;;;29.02;18.92;;;;;;;4.20;69.73;99578.09;6129330;23;20078;-56
2021/03/22 04:16:27;;;;;;;32.38;18.70;;;;;;;4.24;69.88;99572.56;6129461;23;20053;-50
2021/03/22 04:18:53;;;;;;;33.22;20.00;;;;;;;4.25;69.91;99577.75;6129772;23;20402;-66
2021/03/22 04:21:26;;;;;;;37.78;19.55;;;;;;;4.25;69.45;99582.50;6129499;23;20074;-66
2021/03/22 04:23:53;;;;;;;26.13;17.98;;;;;;;4.24;70.28;99590.06;6129456;23;20061;-65
2021/03/22 04:26:20;;;;;;;28.20;17.52;;;;;;;4.24;69.79;99589.25;6129563;23;20012;-67
2021/03/22 04:28:45;;;;;;;24.98;18.35;;;;;;;4.24;69.65;99583.69;6129254;23;20006;-66
2021/03/22 04:31:13;;;;;;;23.15;16.92;;;;;;;4.24;69.97;99592.03;6129527;23;20266;-67
2021/03/22 04:33:39;;;;;;;23.80;16.75;;;;;;;4.25;69.76;99590.84;6129671;23;20270;-66
2021/03/22 04:36:05;;;;;;;26.77;17.50;;;;;;;4.24;70.15;99573.38;6129833;23;20002;-66
2021/03/22 04:38:31;;;;;;;22.92;16.15;;;;;;;4.24;70.26;99578.94;6129578;23;20111;-66
2021/03/22 04:40:56;;;;;;;24.77;18.92;;;;;;;4.23;70.35;99582.09;6129524;23;20018;-66
2021/03/22 04:43:22;;;;;;;24.25;18.48;;;;;;;4.21;70.77;99581.66;6128923;23;20097;-66
2021/03/22 04:45:47;;;;;;;26.02;18.95;;;;;;;4.18;70.42;99579.66;6129620;23;20002;-66
2021/03/22 04:48:13;;;;;;;25.77;18.10;;;;;;;4.17;70.57;99584.41;6129434;23;20298;-66
2021/03/22 04:50:38;;;;;;;24.05;17.77;;;;;;;4.16;71.00;99593.94;6129335;23;20005;-66
2021/03/22 04:53:04;;;;;;;24.80;17.58;;;;;;;4.13;70.87;99591.91;6129493;23;20009;-67
2021/03/22 04:55:30;;;;;;;25.27;18.88;;;;;;;4.12;70.62;99586.75;6128547;23;20012;-66
2021/03/22 04:57:55;;;;;;;24.60;18.08;;;;;;;4.11;71.53;99599.00;6103678;23;20259;-66
2021/03/22 05:00:29;;;;;;;24.80;17.35;;;;;;;4.09;71.52;99587.47;6129801;23;20006;-66
2021/03/22 05:02:55;;;;;;;25.92;17.88;;;;;;;4.10;71.35;99589.06;6103828;23;20076;-65
2021/03/22 05:05:21;;;;;;;31.40;18.35;;;;;;;4.11;71.07;99597.06;6129532;23;20406;-66
2021/03/22 05:07:46;;;;;;;25.30;18.20;;;;;;;4.09;71.51;99598.59;6129516;23;20016;-66
2021/03/22 05:10:19;;;;;;;35.58;22.20;;;;;;;4.11;71.63;99597.06;6129320;23;20033;-64
2021/03/22 05:12:44;;;;;;;42.38;24.95;;;;;;;4.14;71.66;99592.72;6129263;23;20411;-66
2021/03/22 05:15:10;;;;;;;34.85;23.40;;;;;;;4.14;71.02;99601.06;6129429;23;20006;-65
2021/03/22 05:17:35;;;;;;;48.17;30.55;;;;;;;4.12;71.18;99597.88;6130266;23;20397;-67
2021/03/22 05:20:01;;;;;;;26.77;20.35;;;;;;;4.12;71.12;99598.66;6130816;23;20002;-67
2021/03/22 05:22:26;;;;;;;26.90;18.88;;;;;;;4.11;71.99;99599.84;6130477;23;20005;-66
2021/03/22 05:24:51;;;;;;;35.67;27.05;;;;;;;4.13;71.79;99605.03;6131092;23;20159;-66
2021/03/22 05:27:17;;;;;;;30.27;22.30;;;;;;;4.12;71.10;99607.00;6130980;23;20006;-65
2021/03/22 05:29:42;;;;;;;25.98;17.98;;;;;;;4.14;71.64;99603.84;6131086;23;20013;-55
2021/03/22 05:32:29;;;;;;;30.48;20.63;;;;;;;4.15;71.56;99605.44;6130524;23;20006;-54
2021/03/22 05:34:54;;;;;;;30.75;23.27;;;;;;;4.17;71.62;99600.31;6131433;23;20010;-63
2021/03/22 05:37:20;;;;;;;28.65;20.48;;;;;;;4.20;72.06;99605.09;6131309;23;20010;-65
2021/03/22 05:39:46;;;;;;;27.58;19.20;;;;;;;4.23;71.39;99607.13;6130700;23;20056;-67
2021/03/22 05:42:49;;;;;;;26.48;18.80;;;;;;;4.25;70.86;99607.53;6130724;23;20014;-66
2021/03/22 05:45:45;;;;;;;33.20;20.27;;;;;;;4.26;71.03;99609.16;6118570;23;20025;-66
2021/03/22 05:48:25;;;;;;;28.20;19.95;;;;;;;4.27;70.60;99607.97;6105007;23;20006;-66
2021/03/22 05:51:16;;;;;;;29.98;20.50;;;;;;;4.29;70.94;99611.16;6130361;23;20029;-66
2021/03/22 05:53:57;;;;;;;32.80;20.23;;;;;;;4.40;70.35;99616.88;6130830;23;20248;-65
2021/03/22 05:56:32;;;;;;;32.17;19.10;;;;;;;4.38;70.05;99620.00;6130670;23;20110;-65
2021/03/22 05:59:23;;;;;;;31.60;20.92;;;;;;;4.35;69.61;99623.56;6130917;23;20013;-57
2021/03/22 06:01:53;;;;;;;27.73;19.58;;;;;;;4.34;69.61;99628.31;6130926;23;20437;-52
2021/03/22 06:04:30;;;;;;;30.10;19.77;;;;;;;4.50;68.91;99625.31;6130947;23;20275;-67
2021/03/22 06:06:56;;;;;;;28.15;20.08;;;;;;;4.45;69.05;99630.44;6130923;23;20080;-67
2021/03/22 06:09:46;;;;;;;32.20;21.70;;;;;;;4.42;68.79;99645.91;6104915;23;20012;-64
2021/03/22 06:12:30;;;;;;;27.20;21.17;;;;;;;4.38;68.71;99645.03;6131223;23;20010;-65
2021/03/22 06:15:17;;;;;;;37.42;24.88;;;;;;;4.39;68.56;99646.69;6130439;23;20077;-64
2021/03/22 06:18:01;;;;;;;33.92;23.90;;;;;;;4.41;68.50;99649.88;6130717;23;19998;-65
2021/03/22 06:20:30;;;;;;;36.05;23.85;;;;;;;4.44;68.22;99649.13;6130174;23;20006;-65
2021/03/22 06:23:04;;;;;;;31.50;22.00;;;;;;;4.44;67.75;99643.56;6130289;23;19998;-65
2021/03/22 06:25:32;;;;;;;30.42;21.42;;;;;;;4.43;67.52;99650.31;6104946;23;20267;-65
2021/03/22 06:28:15;;;;;;;35.67;23.33;;;;;;;4.41;67.53;99644.31;6130582;23;20350;-64
2021/03/22 06:30:55;;;;;;;29.08;20.55;;;;;;;4.42;67.41;99659.84;6130185;23;20069;-67
2021/03/22 06:33:27;;;;;;;34.53;21.77;;;;;;;4.44;67.64;99651.91;6130506;23;20006;-66
2021/03/22 06:35:53;;;;;;;29.15;20.58;;;;;;;4.49;66.87;99657.13;6130237;23;20355;-67
2021/03/22 06:38:18;;;;;;;27.25;19.80;;;;;;;4.47;65.98;99648.34;6130285;23;20016;-63
2021/03/22 06:40:43;;;;;;;30.05;19.45;;;;;;;4.46;66.52;99657.88;6104713;23;20018;-64
2021/03/22 06:43:16;;;;;;;27.23;18.98;;;;;;;4.44;66.15;99660.25;6130382;23;20077;-65
2021/03/22 06:45:44;;;;;;;30.15;19.25;;;;;;;4.49;65.38;99659.91;6129895;23;20442;-66
2021/03/22 06:48:18;;;;;;;33.13;19.95;;;;;;;4.48;66.08;99663.88;6130495;23;20251;-66
2021/03/22 06:50:44;;;;;;;30.80;18.83;;;;;;;4.46;65.79;99663.44;6129819;23;20326;-66
2021/03/22 06:53:11;;;;;;;28.83;18.95;;;;;;;4.44;65.20;99665.00;6130157;23;20006;-66
2021/03/22 06:55:40;;;;;;;26.23;17.90;;;;;;;4.48;64.63;99677.78;6130476;23;20006;-67
2021/03/22 06:58:06;;;;;;;30.65;18.83;;;;;;;4.49;64.67;99681.38;6130226;23;20548;-67
2021/03/22 07:00:34;;;;;;;30.02;17.67;;;;;;;4.52;64.60;99686.97;6130336;23;20065;-58
2021/03/22 07:03:03;;;;;;;24.70;16.98;;;;;;;4.59;63.93;99689.84;6130377;23;20001;-52
2021/03/22 07:05:31;;;;;;;24.50;17.52;;;;;;;4.61;62.83;99681.91;6130225;23;20009;-66
2021/03/22 07:08:03;;;;;;;24.40;17.45;;;;;;;4.60;63.18;99683.09;6128474;23;20006;-59
2021/03/22 07:10:40;;;;;;;21.80;16.40;;;;;;;4.63;63.18;99693.47;6129866;23;20312;-53
2021/03/22 07:13:14;;;;;;;28.38;18.55;;;;;;;4.65;62.63;99698.63;6125845;23;20057;-53
2021/03/22 07:15:40;;;;;;;30.58;19.27;;;;;;;4.64;62.92;99697.03;6129500;23;20002;-57
2021/03/22 07:18:05;;;;;;;27.75;18.00;;;;;;;4.68;62.30;99708.25;6129429;23;20006;-53
2021/03/22 07:20:31;;;;;;;24.77;16.65;;;;;;;4.71;62.90;99699.94;6129528;23;20002;-55
2021/03/22 07:23:29;;;;;;;24.98;16.20;;;;;;;4.68;62.71;99705.47;6130001;23;20013;-53
2021/03/22 07:26:17;;;;;;;35.25;19.00;;;;;;;4.64;61.67;99710.97;6129275;23;20006;-55
2021/03/22 07:28:49;;;;;;;28.73;17.52;;;;;;;4.62;60.84;99716.09;6128751;23;20069;-49
2021/03/22 07:31:23;;;;;;;28.75;17.20;;;;;;;4.62;60.19;99716.91;6128787;23;20006;-62
2021/03/22 07:34:24;;;;;;;35.53;17.83;;;;;;;4.67;60.76;99724.16;6129504;23;20092;-55
2021/03/22 07:37:11;;;;;;;32.42;17.60;;;;;;;4.65;61.50;99721.72;6129446;23;20061;-56
2021/03/22 07:39:52;;;;;;;24.90;13.68;;;;;;;4.62;62.31;99730.03;6130128;23;20006;-52
2021/03/22 07:42:34;;;;;;;26.95;16.92;;;;;;;4.60;62.65;99724.84;6129319;23;20040;-52
2021/03/22 07:45:19;;;;;;;29.33;16.25;;;;;;;4.58;63.43;99729.97;6128068;23;20009;-56
2021/03/22 07:48:09;;;;;;;38.80;22.65;;;;;;;4.55;64.40;99736.31;6103103;23;20366;-65
2021/03/22 07:50:40;;;;;;;33.22;20.15;;;;;;;4.54;64.13;99737.50;6129547;23;20006;-56
2021/03/22 07:53:15;;;;;;;40.58;20.42;;;;;;;4.52;64.08;99739.84;6129176;23;20009;-51
2021/03/22 07:55:47;;;;;;;34.97;20.48;;;;;;;4.53;65.18;99741.44;6128918;23;20002;-54
2021/03/22 07:58:52;;;;;;;26.00;16.55;;;;;;;4.58;64.95;99743.91;6128166;23;20002;-53
2021/03/22 08:01:34;;;;;;;25.80;16.33;;;;;;;4.57;64.35;99747.06;6112879;23;20008;-57
2021/03/22 08:04:39;;;;;;;28.17;16.23;;;;;;;4.58;64.41;99748.66;6128783;23;20010;-52
2021/03/22 08:07:14;;;;;;;25.85;14.65;;;;;;;4.60;65.00;99757.44;6128651;23;20045;-52
2021/03/22 08:09:54;;;;;;;19.35;12.45;;;;;;;4.58;63.82;99760.59;6128662;23;20320;-56
2021/03/22 08:12:35;;;;;;;17.42;11.00;;;;;;;4.55;64.21;99758.56;6129083;23;20010;-50
2021/03/22 08:15:16;;;;;;;17.15;10.52;;;;;;;4.56;64.06;99764.94;6129258;23;20303;-52
2021/03/22 08:18:08;;;;;;;16.58;10.68;;;;;;;4.63;63.99;99773.38;6129052;23;20009;-50
2021/03/22 08:20:47;;;;;;;18.38;11.60;;;;;;;4.59;63.85;99772.53;6129109;23;20013;-63
2021/03/22 08:23:42;;;;;;;19.27;11.75;;;;;;;4.59;64.36;99786.44;6128712;23;20001;-67
2021/03/22 08:26:16;;;;;;;19.95;12.77;;;;;;;4.62;64.66;99778.16;6121861;23;20053;-64
2021/03/22 08:28:48;;;;;;;20.45;12.82;;;;;;;4.61;63.96;99784.88;6129032;23;20008;-65
2021/03/22 08:31:16;;;;;;;28.65;15.40;;;;;;;4.59;64.61;99789.22;6128566;23;20040;-65
2021/03/22 08:33:47;;;;;;;24.42;14.57;;;;;;;4.64;64.29;99798.06;6128816;23;20045;-65
2021/03/22 08:36:50;;;;;;;27.65;15.27;;;;;;;4.68;64.92;99794.53;6128914;23;20009;-61
2021/03/22 08:39:39;;;;;;;28.15;16.25;;;;;;;4.69;64.69;99791.38;6103308;23;20010;-66
2021/03/22 08:42:11;;;;;;;20.88;13.57;;;;;;;4.71;64.97;99788.22;6128971;23;20162;-64
2021/03/22 08:44:46;;;;;;;28.40;16.52;;;;;;;4.64;65.70;99786.91;6129117;23;20013;-66
2021/03/22 08:47:27;;;;;;;29.42;15.65;;;;;;;4.65;66.16;99798.84;6128705;23;20025;-65
2021/03/22 08:50:01;;;;;;;150.90;70.78;;;;;;;4.65;66.70;99799.66;6128796;23;20006;-60
2021/03/22 08:52:35;;;;;;;117.35;58.22;;;;;;;4.79;66.23;99803.81;6129540;23;20080;-62
2021/03/22 08:55:10;;;;;;;140.98;69.43;;;;;;;4.79;67.10;99804.63;6130894;23;20366;-63
2021/03/22 08:57:45;;;;;;;95.07;52.70;;;;;;;4.75;66.48;99806.56;6130785;23;20371;-54
2021/03/22 09:00:19;;;;;;;85.28;46.00;;;;;;;4.69;66.79;99807.28;6105101;23;20010;-62
2021/03/22 09:03:17;;;;;;;66.55;42.38;;;;;;;4.65;67.96;99808.00;6104875;23;20018;-66
2021/03/22 09:06:03;;;;;;;39.40;26.48;;;;;;;4.73;68.16;99808.94;6128724;23;20016;-49
2021/03/22 09:08:30;;;;;;;28.75;20.60;;;;;;;4.73;68.68;99816.47;6105021;23;20056;-54
2021/03/22 09:11:12;;;;;;;28.75;20.35;;;;;;;4.81;67.95;99818.16;6131266;23;20006;-57
2021/03/22 09:13:38;;;;;;;33.53;23.30;;;;;;;4.81;68.40;99816.19;6130424;23;20013;-58
2021/03/22 09:16:34;;;;;;;27.13;16.50;;;;;;;4.86;68.29;99815.03;6129479;23;20010;-58
2021/03/22 09:19:12;;;;;;;24.65;16.08;;;;;;;4.99;68.30;99830.34;6130746;23;20310;-57
2021/03/22 09:21:40;;;;;;;26.38;16.95;;;;;;;4.98;68.35;99820.38;6130607;23;19998;-63
2021/03/22 09:24:36;;;;;;;22.65;16.08;;;;;;;5.03;68.32;99814.47;6130754;23;20002;-60
2021/03/22 09:27:02;;;;;;;22.08;15.30;;;;;;;5.12;69.17;99825.31;6130800;23;20009;-56
2021/03/22 09:29:30;;;;;;;25.88;18.45;;;;;;;5.17;68.07;99823.00;6129324;23;20010;-62
2021/03/22 09:31:55;;;;;;;21.02;14.95;;;;;;;5.26;68.37;99823.50;6129707;23;20438;-63
2021/03/22 09:34:21;;;;;;;24.70;16.15;;;;;;;5.30;67.76;99817.19;6131215;23;20060;-61
2021/03/22 09:36:48;;;;;;;21.35;15.43;;;;;;;5.26;67.71;99823.50;6130839;23;20017;-61
2021/03/22 09:39:14;;;;;;;22.98;14.90;;;;;;;5.35;68.27;99823.19;6105400;23;20005;-63
2021/03/22 09:42:03;;;;;;;24.75;16.45;;;;;;;5.43;67.26;99826.88;6130829;23;20014;-62
2021/03/22 09:44:33;;;;;;;62.58;33.60;;;;;;;5.47;67.69;99822.94;6130734;23;20005;-61
2021/03/22 09:47:13;;;;;;;40.15;22.58;;;;;;;5.57;66.65;99827.03;6129503;23;20033;-64
2021/03/22 09:50:00;;;;;;;219.88;103.05;;;;;;;5.63;66.59;99833.84;6129785;23;20302;-66
2021/03/22 09:52:31;;;;;;;141.88;64.18;;;;;;;5.74;66.79;99828.38;6130478;23;20056;-65
2021/03/22 09:54:58;;;;;;;79.00;43.40;;;;;;;5.80;66.66;99832.44;6130401;23;20006;-66
2021/03/22 09:57:42;;;;;;;60.00;32.55;;;;;;;5.87;65.80;99838.88;6130833;23;20091;-66
2021/03/22 10:00:26;;;;;;;62.83;33.25;;;;;;;5.94;64.88;99840.94;6129913;23;20073;-61
2021/03/22 10:03:00;;;;;;;97.97;44.20;;;;;;;5.98;63.56;99838.19;6130024;23;19998;-62
2021/03/22 10:05:45;;;;;;;70.57;34.58;;;;;;;6.06;64.20;99837.09;6130323;23;20025;-64
2021/03/22 10:08:22;;;;;;;49.08;26.42;;;;;;;6.11;61.63;99831.94;6114234;23;20010;-63
2021/03/22 10:11:04;;;;;;;38.13;22.35;;;;;;;6.19;61.75;99833.59;6104503;23;20014;-64
2021/03/22 10:13:32;;;;;;;44.75;23.83;;;;;;;6.25;61.35;99836.81;6129729;23;20021;-63
2021/03/22 10:16:12;;;;;;;190.52;80.88;;;;;;;6.29;61.49;99832.06;6128346;23;20009;-59
2021/03/22 10:18:42;;;;;;;206.98;65.85;;;;;;;6.40;61.34;99830.16;6130541;23;20002;-58
2021/03/22 10:21:20;;;;;;;41.65;19.88;;;;;;;6.45;60.08;99838.19;6130052;23;20355;-55
2021/03/22 10:24:01;;;;;;;264.70;85.03;;;;;;;6.44;59.45;99835.78;6130446;23;20056;-52
2021/03/22 10:26:40;;;;;;;318.85;117.68;;;;;;;6.45;59.69;99840.97;6129602;23;20319;-48
2021/03/22 10:29:21;;;;;;;142.52;58.33;;;;;;;6.46;59.54;99838.97;6130230;23;20081;-56
2021/03/22 10:31:59;;;;;;;24.67;15.80;;;;;;;6.56;58.62;99838.22;6130481;23;20330;-56
2021/03/22 10:34:55;;;;;;;165.32;73.70;;;;;;;6.54;58.63;99837.81;6130391;23;20002;-51
2021/03/22 10:37:30;;;;;;;204.85;84.05;;;;;;;6.57;58.56;99847.41;6130860;23;20016;-60
2021/03/22 10:40:04;;;;;;;163.20;79.10;;;;;;;6.57;57.13;99853.00;6130096;23;20009;-61
2021/03/22 10:42:29;;;;;;;101.50;52.00;;;;;;;6.61;57.38;99851.06;6130646;23;20025;-57
2021/03/22 10:44:56;;;;;;;62.00;36.80;;;;;;;6.61;57.03;99851.06;6104504;23;20010;-60
2021/03/22 10:47:28;;;;;;;24.23;16.40;;;;;;;6.57;56.85;99855.78;6130435;23;20012;-62
2021/03/22 10:50:05;;;;;;;27.15;14.95;;;;;;;6.58;57.07;99860.22;6130218;23;20419;-63
2021/03/22 10:52:31;;;;;;;28.20;16.23;;;;;;;6.61;56.57;99849.06;6130091;23;20007;-61
2021/03/22 10:54:57;;;;;;;37.65;18.23;;;;;;;6.59;57.48;99850.66;6130162;23;20018;-59
2021/03/22 10:57:33;;;;;;;25.23;15.38;;;;;;;6.68;56.29;99848.28;6130489;23;20006;-52
2021/03/22 11:00:07;;;;;;;21.98;14.05;;;;;;;6.67;57.03;99846.69;6130302;23;20069;-54
2021/03/22 11:02:45;;;;;;;45.20;24.98;;;;;;;6.73;56.98;99840.34;6130101;23;20009;-55
2021/03/22 11:05:14;;;;;;;38.65;21.90;;;;;;;6.86;57.12;99843.63;6130504;23;20006;-53
2021/03/22 11:07:40;;;;;;;29.35;16.80;;;;;;;7.03;55.07;99845.69;6129780;23;20442;-54
2021/03/22 11:10:14;;;;;;;56.88;29.25;;;;;;;7.18;54.37;99840.19;6130096;23;20040;-66
2021/03/22 11:12:46;;;;;;;32.00;17.45;;;;;;;7.22;54.23;99843.78;6129501;23;20006;-57
2021/03/22 11:15:34;;;;;;;28.13;14.32;;;;;;;7.21;52.93;99853.38;6104241;23;20010;-54
2021/03/22 11:18:05;;;;;;;20.23;13.00;;;;;;;7.24;53.20;99846.97;6129698;23;20076;-58
2021/03/22 11:20:31;;;;;;;23.85;12.88;;;;;;;7.28;52.91;99847.78;6129866;23;20002;-52
2021/03/22 11:23:16;;;;;;;62.80;15.18;;;;;;;7.33;52.13;99845.41;6130532;23;20009;-53
2021/03/22 11:25:42;;;;;;;26.10;16.02;;;;;;;7.41;52.98;99843.47;6130592;23;20033;-63
2021/03/22 11:28:19;;;;;;;20.75;11.35;;;;;;;7.52;52.13;99838.69;6129962;23;20004;-56
2021/03/22 11:30:54;;;;;;;27.40;15.10;;;;;;;7.64;51.33;99841.09;6130069;23;20013;-57
2021/03/22 11:33:22;;;;;;;50.95;19.65;;;;;;;7.75;50.46;99838.34;6130217;23;20068;-54
2021/03/22 11:36:13;;;;;;;297.20;65.38;;;;;;;7.82;50.28;99840.34;6130501;23;20014;-60
2021/03/22 11:39:08;;;;;;;47.38;17.58;;;;;;;7.75;50.52;99833.56;6129671;23;20014;-57
2021/03/22 11:41:35;;;;;;;45.05;18.20;;;;;;;7.74;49.86;99843.13;6122555;23;20283;-56
2021/03/22 11:44:15;;;;;;;94.20;26.15;;;;;;;7.69;50.62;99840.75;6129961;23;20005;-53
2021/03/22 11:46:42;;;;;;;21.73;11.65;;;;;;;7.63;51.15;99842.31;6129837;23;20422;-51
2021/03/22 11:49:42;;;;;;;41.08;15.25;;;;;;;7.58;51.32;99837.09;6129711;23;20002;-56
2021/03/22 11:52:28;;;;;;;91.85;33.97;;;;;;;7.54;51.27;99846.69;6129987;23;20016;-63